Wolfville, Canada
Current Conditions -  °F | °C
As of 4:00 AM on Sunday 21 Dec 2014 (Local Time) from CYZX Reporting Station
Overcast Overcast  
Wind Chill: 25°   Ceiling: 2300
Heat Index: 30°   Visibility: 15mi
Dew Point: 25°   Wind: 5mph
Humidity: 80%   Direction: 110°ESE
Pressure: 30.34"   Gusts: NA
Location:  45.08°N, 64.37°W
Report Text: CYZX 210800Z 11004KT 15SM OVC023 M01/M04 A3034 RMK SC8 WNDY HILL 11003KT SLP277
Loading
Personal Weather Stations






























Interactive Weather Map New forecast layout! Learn more

10-Day Weather Forecast

Advertisements
Track Severe Weather on mobile